Time;durP1;ratioP1;P1;durP2;ratioP2;P2;SDS_P1;SDS_P2;PMS_P1;PMS_P2;Temp;Humidity;BMP_temperature;BMP_pressure;BME280_temperature;BME280_humidity;BME280_pressure;Samples;Min_cycle;Max_cycle;Signal;HPM_P1;HPM_P2
2020/12/04 00:00:03;;;;;;;15.10;7.90;;;2.40;99.90;;;;;;12509255;28;20072;-37
2020/12/04 00:06:04;;;;;;;15.93;9.93;;;2.40;99.90;;;;;;12508284;28;20080;-37
2020/12/04 00:12:05;;;;;;;16.40;9.30;;;2.50;99.90;;;;;;12502213;28;20045;-38
2020/12/04 00:18:07;;;;;;;17.02;9.85;;;2.50;99.90;;;;;;12493517;28;20773;-37
2020/12/04 00:24:08;;;;;;;16.27;9.50;;;2.40;99.90;;;;;;12507903;28;20102;-37
2020/12/04 00:30:09;;;;;;;20.48;10.20;;;2.40;99.90;;;;;;12510253;28;20492;-38
2020/12/04 00:36:11;;;;;;;14.98;9.45;;;2.40;99.90;;;;;;12501610;28;20052;-37
2020/12/04 00:42:12;;;;;;;15.45;9.73;;;2.60;99.90;;;;;;12502567;28;20152;-36
2020/12/04 00:48:14;;;;;;;17.25;9.27;;;2.60;99.90;;;;;;12495251;28;20480;-37
2020/12/04 00:54:15;;;;;;;16.15;9.35;;;2.60;99.90;;;;;;12511947;28;21077;-37
2020/12/04 01:00:17;;;;;;;16.60;9.55;;;2.60;99.90;;;;;;12520569;28;20128;-37
2020/12/04 01:06:19;;;;;;;15.13;9.35;;;2.60;99.90;;;;;;12511089;28;20572;-37
2020/12/04 01:12:20;;;;;;;17.48;10.45;;;2.60;99.90;;;;;;12510499;28;20143;-38
2020/12/04 01:18:21;;;;;;;15.85;8.77;;;2.60;99.90;;;;;;12519272;28;20144;-37
2020/12/04 01:24:23;;;;;;;16.08;9.85;;;2.60;99.90;;;;;;12523562;28;20127;-37
2020/12/04 01:30:25;;;;;;;17.88;10.70;;;2.60;99.90;;;;;;12533461;28;20489;-37
2020/12/04 01:36:32;;;;;;;15.90;9.57;;;2.60;99.90;;;;;;12533158;28;20708;-37
2020/12/04 01:42:33;;;;;;;17.73;10.40;;;2.60;99.90;;;;;;12504942;28;20144;-37
2020/12/04 01:48:35;;;;;;;19.73;10.45;;;2.70;99.90;;;;;;12526688;28;20446;-37
2020/12/04 01:54:36;;;;;;;18.33;10.90;;;2.70;99.90;;;;;;12530047;28;20494;-38
2020/12/04 02:00:38;;;;;;;18.85;10.73;;;2.70;99.90;;;;;;12513081;28;20811;-37
2020/12/04 02:06:53;;;;;;;18.02;10.43;;;2.70;99.90;;;;;;12519499;28;20140;-37
2020/12/04 02:12:55;;;;;;;18.60;10.63;;;2.70;99.90;;;;;;12496718;28;20464;-37
2020/12/04 02:18:56;;;;;;;19.05;10.63;;;2.70;99.90;;;;;;12522314;28;20080;-37
2020/12/04 02:24:57;;;;;;;19.70;10.88;;;2.70;99.90;;;;;;12522408;28;20440;-37
2020/12/04 02:30:59;;;;;;;16.88;10.18;;;2.60;99.90;;;;;;12516367;28;20131;-37
2020/12/04 02:37:00;;;;;;;21.35;11.57;;;2.60;99.90;;;;;;12513405;28;20091;-37
2020/12/04 02:43:01;;;;;;;17.75;10.70;;;2.60;99.90;;;;;;12517725;28;20083;-37
2020/12/04 02:49:03;;;;;;;16.88;10.38;;;2.60;99.90;;;;;;12504559;28;20136;-37
2020/12/04 02:55:04;;;;;;;20.33;11.90;;;2.60;99.90;;;;;;12529107;28;20064;-37
2020/12/04 03:01:05;;;;;;;18.40;11.18;;;2.60;99.90;;;;;;12524357;28;20076;-37
2020/12/04 03:07:06;;;;;;;17.40;10.10;;;2.60;99.90;;;;;;12509070;28;20079;-37
2020/12/04 03:13:08;;;;;;;18.00;11.45;;;2.70;99.90;;;;;;12517541;28;20650;-37
2020/12/04 03:19:09;;;;;;;17.48;10.70;;;2.70;99.90;;;;;;12493879;28;20077;-36
2020/12/04 03:25:11;;;;;;;18.17;10.70;;;2.70;99.90;;;;;;12521970;28;20049;-36
2020/12/04 03:31:12;;;;;;;18.00;10.35;;;2.60;99.90;;;;;;12515382;28;20099;-37
2020/12/04 03:37:14;;;;;;;22.27;12.38;;;2.60;99.90;;;;;;12510325;28;20090;-37
2020/12/04 03:43:15;;;;;;;19.05;10.25;;;2.50;99.90;;;;;;12517911;28;20139;-37
2020/12/04 03:49:17;;;;;;;20.98;11.32;;;2.50;99.90;;;;;;12515028;28;20144;-37
2020/12/04 03:55:18;;;;;;;20.08;11.30;;;2.50;99.90;;;;;;12514265;28;20048;-36
2020/12/04 04:01:19;;;;;;;22.25;11.95;;;2.50;99.90;;;;;;12524146;28;20155;-37
2020/12/04 04:07:21;;;;;;;18.23;10.70;;;2.50;99.90;;;;;;12492849;28;20136;-37
2020/12/04 04:13:22;;;;;;;18.45;11.77;;;2.60;99.90;;;;;;12507848;28;20131;-36
2020/12/04 04:19:23;;;;;;;18.88;11.50;;;2.60;99.90;;;;;;12502311;28;20448;-37
2020/12/04 04:25:25;;;;;;;18.75;11.18;;;2.70;99.90;;;;;;12495560;28;20068;-36
2020/12/04 04:31:26;;;;;;;19.73;10.98;;;2.70;99.90;;;;;;12520294;28;20067;-37
2020/12/04 04:37:27;;;;;;;21.55;11.77;;;2.70;99.90;;;;;;12471508;28;20478;-37
2020/12/04 04:43:29;;;;;;;19.27;11.30;;;2.80;99.90;;;;;;12509984;28;20127;-37
2020/12/04 04:49:36;;;;;;;20.35;11.90;;;2.80;99.90;;;;;;12502491;28;20079;-37
2020/12/04 04:55:42;;;;;;;17.90;11.13;;;2.80;99.90;;;;;;12506787;28;20155;-37
2020/12/04 05:01:44;;;;;;;19.27;11.15;;;2.90;99.90;;;;;;12513192;28;20080;-37
2020/12/04 05:07:45;;;;;;;20.83;12.00;;;2.90;99.90;;;;;;12502724;28;20057;-38
2020/12/04 05:13:47;;;;;;;16.92;10.40;;;2.90;99.90;;;;;;12491336;28;20096;-37
2020/12/04 05:19:48;;;;;;;20.63;12.18;;;2.90;99.90;;;;;;12491082;28;20131;-37
2020/12/04 05:25:51;;;;;;;19.63;11.00;;;2.90;99.90;;;;;;12492841;28;20181;-37
2020/12/04 05:31:52;;;;;;;22.88;11.93;;;2.90;99.90;;;;;;12494910;28;20567;-38
2020/12/04 05:38:12;;;;;;;19.73;11.40;;;2.90;99.90;;;;;;12502113;28;20172;-37
2020/12/04 05:44:15;;;;;;;20.20;11.48;;;2.90;99.90;;;;;;12494707;28;20056;-37
2020/12/04 05:50:16;;;;;;;19.80;11.57;;;3.10;99.90;;;;;;12515322;28;20140;-37
2020/12/04 05:56:19;;;;;;;19.33;12.07;;;3.00;99.90;;;;;;12518391;28;20049;-38
2020/12/04 06:02:20;;;;;;;18.38;10.90;;;3.00;99.90;;;;;;12521878;28;20658;-38
2020/12/04 06:08:28;;;;;;;18.20;11.25;;;3.00;99.90;;;;;;12519883;28;20155;-37
2020/12/04 06:14:29;;;;;;;18.42;10.05;;;3.10;99.90;;;;;;12491395;28;20048;-38
2020/12/04 06:20:47;;;;;;;17.50;10.77;;;3.30;99.90;;;;;;12511360;28;20148;-37
2020/12/04 06:26:49;;;;;;;16.17;9.43;;;3.50;99.90;;;;;;12511808;28;20060;-37
2020/12/04 06:32:53;;;;;;;16.58;9.10;;;3.60;99.90;;;;;;12524716;28;20688;-37
2020/12/04 06:38:54;;;;;;;20.50;10.77;;;3.60;99.90;;;;;;12508881;28;20080;-37
2020/12/04 06:44:56;;;;;;;17.02;10.68;;;3.60;99.90;;;;;;12514337;28;20087;-38
2020/12/04 06:50:58;;;;;;;17.60;11.00;;;3.60;99.90;;;;;;12513962;28;20076;-37
2020/12/04 06:56:59;;;;;;;18.55;10.30;;;3.60;99.90;;;;;;12525628;28;20416;-37
2020/12/04 07:03:03;;;;;;;17.15;9.90;;;3.50;99.90;;;;;;12521555;28;20499;-37
2020/12/04 07:09:05;;;;;;;15.90;9.25;;;3.50;99.90;;;;;;12514877;28;20128;-37
2020/12/04 07:15:06;;;;;;;14.68;8.73;;;3.50;99.90;;;;;;12512187;28;20136;-37
2020/12/04 07:21:08;;;;;;;14.55;9.13;;;3.60;99.90;;;;;;12512582;28;20507;-37
2020/12/04 07:27:14;;;;;;;18.40;9.40;;;3.70;99.90;;;;;;12499280;28;20049;-38
2020/12/04 07:33:15;;;;;;;16.35;9.70;;;3.70;99.90;;;;;;12517905;28;20056;-38
2020/12/04 07:39:32;;;;;;;14.93;8.98;;;3.60;99.90;;;;;;12505538;28;20080;-38
2020/12/04 07:45:33;;;;;;;16.38;8.98;;;3.70;99.90;;;;;;12514679;28;20476;-38
2020/12/04 07:51:37;;;;;;;14.88;9.35;;;3.70;99.90;;;;;;12508531;28;20059;-38
2020/12/04 07:57:45;;;;;;;15.98;9.48;;;3.70;99.90;;;;;;12518547;28;20449;-38
2020/12/04 08:03:48;;;;;;;13.10;8.70;;;3.70;99.90;;;;;;12519874;28;20064;-38
2020/12/04 08:09:50;;;;;;;13.25;8.60;;;3.80;99.90;;;;;;12498213;28;20568;-38
2020/12/04 08:15:53;;;;;;;12.30;7.82;;;3.90;99.90;;;;;;12507061;28;20061;-38
2020/12/04 08:21:58;;;;;;;15.68;9.07;;;3.90;99.90;;;;;;12506775;28;20151;-38
2020/12/04 08:28:00;;;;;;;;;;;4.00;99.90;;;;;;12505285;28;20087;-38
2020/12/04 08:34:01;;;;;;;13.82;7.35;;;3.90;99.90;;;;;;12511392;28;19967;-37
2020/12/04 08:40:03;;;;;;;13.27;8.30;;;4.00;99.90;;;;;;12511406;28;20179;-38
2020/12/04 08:46:10;;;;;;;9.43;6.65;;;4.10;99.90;;;;;;12484547;28;20060;-38
2020/12/04 08:52:11;;;;;;;10.93;6.97;;;4.30;99.90;;;;;;12493554;28;20507;-38
2020/12/04 08:58:14;;;;;;;11.63;6.97;;;4.30;99.90;;;;;;12516200;28;20089;-38
2020/12/04 09:04:16;;;;;;;10.32;6.50;;;4.40;99.90;;;;;;12486948;28;20079;-38
2020/12/04 09:10:18;;;;;;;10.90;7.50;;;4.40;99.90;;;;;;12509207;28;20072;-38
2020/12/04 09:16:20;;;;;;;11.45;6.57;;;4.40;99.90;;;;;;12484946;28;21510;-38
2020/12/04 09:22:21;;;;;;;9.63;6.22;;;4.60;99.90;;;;;;12515581;28;20104;-37
2020/12/04 09:28:22;;;;;;;12.30;6.78;;;4.60;99.90;;;;;;12502567;28;20048;-37
2020/12/04 09:34:24;;;;;;;10.13;6.15;;;4.60;99.90;;;;;;12505770;28;20083;-38
2020/12/04 09:40:25;;;;;;;12.60;7.25;;;4.60;99.90;;;;;;12511903;28;20132;-37
2020/12/04 09:46:28;;;;;;;28.05;17.67;;;4.70;99.90;;;;;;12514756;28;20140;-38
2020/12/04 09:52:29;;;;;;;11.35;7.28;;;4.70;99.90;;;;;;12495254;28;20091;-38
2020/12/04 09:58:31;;;;;;;9.10;6.22;;;4.90;99.90;;;;;;12525114;28;20048;-38
2020/12/04 10:04:33;;;;;;;12.02;6.90;;;5.00;99.90;;;;;;12516903;28;20718;-38
2020/12/04 10:10:35;;;;;;;10.23;5.85;;;5.00;99.90;;;;;;12507409;28;20107;-37
2020/12/04 10:16:36;;;;;;;17.83;8.70;;;5.10;99.90;;;;;;12504850;28;20140;-37
2020/12/04 10:22:38;;;;;;;10.15;6.93;;;5.10;99.90;;;;;;12509638;28;20088;-37
2020/12/04 10:28:39;;;;;;;13.73;9.63;;;5.10;99.90;;;;;;12524732;28;21536;-38
2020/12/04 10:34:40;;;;;;;14.77;10.18;;;5.20;99.90;;;;;;12504422;28;20487;-37
2020/12/04 10:40:42;;;;;;;9.68;6.50;;;5.30;99.90;;;;;;12509189;28;20087;-38
2020/12/04 10:46:43;;;;;;;48.92;26.92;;;5.50;99.90;;;;;;12514065;28;20076;-39
2020/12/04 10:52:45;;;;;;;24.35;15.13;;;5.40;99.90;;;;;;12487275;28;20148;-37
2020/12/04 10:58:48;;;;;;;21.52;12.68;;;5.50;99.90;;;;;;12521035;28;20727;-37
2020/12/04 11:11:09;;;;;;;9.38;5.75;;;5.60;99.90;;;;;;12500251;28;20057;-37
2020/12/04 11:17:19;;;;;;;7.63;4.75;;;5.70;99.90;;;;;;12508344;28;20139;-37
2020/12/04 11:23:20;;;;;;;10.40;7.07;;;5.80;99.90;;;;;;12514386;28;20087;-37
2020/12/04 11:29:22;;;;;;;8.65;5.80;;;5.80;99.90;;;;;;12510190;28;20512;-38
2020/12/04 11:35:23;;;;;;;9.77;5.68;;;5.90;99.90;;;;;;12506915;28;20076;-38
2020/12/04 11:41:29;;;;;;;7.80;4.90;;;5.90;99.90;;;;;;12515674;28;20055;-38
2020/12/04 11:47:31;;;;;;;7.28;4.53;;;6.00;99.90;;;;;;12523078;28;20508;-39
2020/12/04 11:53:32;;;;;;;8.38;4.57;;;6.00;99.90;;;;;;12510333;28;20626;-38
2020/12/04 11:59:33;;;;;;;7.60;4.63;;;6.20;99.90;;;;;;12523370;28;20076;-38
2020/12/04 12:05:37;;;;;;;10.13;4.97;;;6.30;99.90;;;;;;12516569;28;20175;-38
2020/12/04 12:11:38;;;;;;;7.25;4.00;;;6.40;99.90;;;;;;12516849;28;20079;-38
2020/12/04 12:17:39;;;;;;;7.75;4.78;;;6.40;99.90;;;;;;12499354;28;20088;-38
2020/12/04 12:23:41;;;;;;;7.45;3.88;;;6.50;99.90;;;;;;12514224;28;20090;-38
2020/12/04 12:29:43;;;;;;;8.95;5.68;;;6.50;99.90;;;;;;12491965;28;20690;-38
2020/12/04 12:35:45;;;;;;;6.63;3.88;;;6.50;99.90;;;;;;12491802;28;20080;-37
2020/12/04 12:41:46;;;;;;;9.88;5.30;;;6.60;99.90;;;;;;12504645;28;20056;-38
2020/12/04 12:47:51;;;;;;;10.35;6.57;;;6.70;99.90;;;;;;12515544;28;20052;-38
2020/12/04 12:53:52;;;;;;;11.85;6.65;;;6.80;99.90;;;;;;12508812;28;20056;-38
2020/12/04 12:59:54;;;;;;;7.55;4.45;;;6.90;99.90;;;;;;12513635;28;20049;-38
2020/12/04 13:05:55;;;;;;;6.18;3.80;;;6.90;99.90;;;;;;12516864;28;20413;-37
2020/12/04 13:11:56;;;;;;;5.47;3.30;;;6.80;99.90;;;;;;12488045;28;20048;-38
2020/12/04 13:17:58;;;;;;;6.47;2.97;;;6.70;99.90;;;;;;12494748;28;20068;-38
2020/12/04 13:24:03;;;;;;;7.20;3.67;;;6.80;99.90;;;;;;12491127;28;20504;-38
2020/12/04 13:30:05;;;;;;;6.18;3.65;;;6.80;99.90;;;;;;12483684;28;20056;-38
2020/12/04 13:36:07;;;;;;;5.20;3.33;;;6.70;99.90;;;;;;12504696;28;20048;-37
2020/12/04 13:42:08;;;;;;;5.55;3.63;;;6.60;99.90;;;;;;12495871;28;20091;-38
2020/12/04 13:48:10;;;;;;;5.57;3.08;;;6.60;99.90;;;;;;12513716;28;20135;-38
2020/12/04 13:54:11;;;;;;;5.55;3.17;;;6.50;99.90;;;;;;12498588;28;21027;-38
2020/12/04 14:00:12;;;;;;;4.55;2.58;;;6.60;99.90;;;;;;12507612;28;20922;-37
2020/12/04 14:06:15;;;;;;;4.95;3.30;;;6.70;99.90;;;;;;12512103;28;20049;-38
2020/12/04 14:12:16;;;;;;;7.03;3.92;;;6.70;99.90;;;;;;12511687;28;20891;-37
2020/12/04 14:18:18;;;;;;;5.53;2.75;;;6.60;99.90;;;;;;12511142;28;20099;-38
2020/12/04 14:24:19;;;;;;;5.13;2.50;;;6.60;99.90;;;;;;12487929;28;20136;-38
2020/12/04 14:30:20;;;;;;;5.32;2.10;;;6.60;99.90;;;;;;12517582;28;20147;-37
2020/12/04 14:36:23;;;;;;;4.90;2.55;;;6.70;99.90;;;;;;12513542;28;20496;-38
2020/12/04 14:42:24;;;;;;;3.83;2.45;;;6.70;99.90;;;;;;12502845;28;20560;-38
2020/12/04 14:48:25;;;;;;;3.33;2.25;;;6.70;99.90;;;;;;12519415;28;20084;-38
2020/12/04 14:54:26;;;;;;;5.40;2.63;;;6.60;99.90;;;;;;12516924;28;20052;-38
2020/12/04 15:00:29;;;;;;;4.75;2.17;;;6.60;99.90;;;;;;12522305;28;20056;-39
2020/12/04 15:06:30;;;;;;;6.85;3.72;;;6.60;99.90;;;;;;12509160;28;20712;-38
2020/12/04 15:12:34;;;;;;;7.97;4.35;;;6.50;99.90;;;;;;12488932;28;21046;-38
2020/12/04 15:18:36;;;;;;;5.40;2.72;;;6.50;99.90;;;;;;12504218;28;20477;-38
2020/12/04 15:24:41;;;;;;;8.13;3.38;;;6.40;99.90;;;;;;12506180;28;20791;-38
2020/12/04 15:30:43;;;;;;;4.68;2.60;;;6.60;99.90;;;;;;12504632;28;20126;-38
2020/12/04 15:36:47;;;;;;;6.87;2.93;;;6.40;99.90;;;;;;12508216;28;20448;-38
2020/12/04 15:42:48;;;;;;;5.95;2.75;;;6.30;99.90;;;;;;12487270;28;20094;-38
2020/12/04 15:48:50;;;;;;;7.97;3.42;;;6.40;99.90;;;;;;12509615;28;20508;-38
2020/12/04 15:54:52;;;;;;;5.60;3.50;;;6.30;99.90;;;;;;12521472;28;20103;-38
2020/12/04 16:00:53;;;;;;;6.95;3.50;;;6.30;99.90;;;;;;12518813;28;20060;-37
2020/12/04 16:06:55;;;;;;;7.93;4.70;;;6.30;99.90;;;;;;12499339;28;20156;-37
2020/12/04 16:12:56;;;;;;;10.13;5.97;;;6.40;99.90;;;;;;12500390;28;20052;-38
2020/12/04 16:18:57;;;;;;;10.50;5.03;;;6.40;99.90;;;;;;12494069;28;20496;-38
2020/12/04 16:24:59;;;;;;;8.30;4.40;;;6.30;99.90;;;;;;12505858;28;20071;-38
2020/12/04 16:31:00;;;;;;;9.05;4.88;;;6.30;99.90;;;;;;12489633;28;20141;-38
2020/12/04 16:37:07;;;;;;;13.68;5.20;;;6.20;99.90;;;;;;12496970;28;20142;-38
2020/12/04 16:43:08;;;;;;;14.38;6.35;;;6.20;99.90;;;;;;12516265;28;20052;-38
2020/12/04 16:49:12;;;;;;;20.95;9.80;;;6.20;99.90;;;;;;12514393;28;20124;-39
2020/12/04 16:55:14;;;;;;;16.73;7.27;;;6.10;99.90;;;;;;12503258;28;20047;-38
2020/12/04 17:01:15;;;;;;;17.77;7.75;;;6.00;99.90;;;;;;12504836;28;20358;-38
2020/12/04 17:07:17;;;;;;;21.10;8.18;;;5.90;99.90;;;;;;12515986;28;20683;-38
2020/12/04 17:13:18;;;;;;;17.55;8.63;;;5.80;99.90;;;;;;12494645;28;20139;-38
2020/12/04 17:19:21;;;;;;;20.02;8.50;;;5.70;99.90;;;;;;12506799;28;20912;-38
2020/12/04 17:25:22;;;;;;;21.00;9.00;;;5.70;99.90;;;;;;12511005;28;20063;-37
2020/12/04 17:31:24;;;;;;;23.40;7.85;;;5.60;99.90;;;;;;12502697;28;20048;-38
2020/12/04 17:37:27;;;;;;;21.60;8.35;;;5.60;99.90;;;;;;12512858;28;20044;-37
2020/12/04 17:43:29;;;;;;;17.42;7.93;;;5.50;99.90;;;;;;12521571;28;20171;-38
2020/12/04 17:49:30;;;;;;;21.63;8.63;;;5.50;99.90;;;;;;12525328;28;20144;-38
2020/12/04 17:55:31;;;;;;;21.25;9.15;;;5.40;99.90;;;;;;12516874;28;20476;-37
2020/12/04 18:01:33;;;;;;;23.02;10.95;;;5.30;99.90;;;;;;12513915;28;20087;-38
2020/12/04 18:07:35;;;;;;;21.55;9.13;;;5.30;99.90;;;;;;12522223;28;20045;-38
2020/12/04 18:13:42;;;;;;;20.77;9.65;;;5.30;99.90;;;;;;12516259;28;20056;-39
2020/12/04 18:19:44;;;;;;;25.38;10.55;;;5.30;99.90;;;;;;12523098;28;20072;-38
2020/12/04 18:25:46;;;;;;;22.00;9.68;;;5.30;99.90;;;;;;12504322;28;20073;-38
2020/12/04 18:31:51;;;;;;;19.25;8.57;;;5.40;99.90;;;;;;12508323;28;20080;-38
2020/12/04 18:37:53;;;;;;;19.73;8.63;;;5.40;99.90;;;;;;12515024;28;20080;-39
2020/12/04 18:43:54;;;;;;;19.80;7.95;;;5.40;99.90;;;;;;12507332;28;20084;-38
2020/12/04 18:49:55;;;;;;;15.07;7.60;;;5.40;99.90;;;;;;12526365;28;20048;-38
2020/12/04 18:55:57;;;;;;;16.38;7.22;;;5.40;99.90;;;;;;12510990;28;20114;-38
2020/12/04 19:01:59;;;;;;;21.15;9.13;;;5.40;99.90;;;;;;12515711;28;20092;-37
2020/12/04 19:08:01;;;;;;;16.63;8.48;;;5.40;99.90;;;;;;12519556;28;20451;-38
2020/12/04 19:14:02;;;;;;;19.23;9.00;;;5.40;99.90;;;;;;12501745;28;22034;-37
2020/12/04 19:20:04;;;;;;;16.40;7.53;;;5.40;99.90;;;;;;12504455;28;20053;-38
2020/12/04 19:26:07;;;;;;;15.45;6.75;;;5.40;99.90;;;;;;12496124;28;20056;-37
2020/12/04 19:32:10;;;;;;;15.23;8.40;;;5.40;99.90;;;;;;12495879;28;20049;-37
2020/12/04 19:38:11;;;;;;;17.05;8.15;;;5.40;99.90;;;;;;12498693;28;20060;-38
2020/12/04 19:44:13;;;;;;;12.73;6.30;;;5.40;99.90;;;;;;12497414;28;20091;-38
2020/12/04 19:50:17;;;;;;;17.17;8.23;;;5.60;99.90;;;;;;12504873;28;20127;-38
2020/12/04 19:56:18;;;;;;;14.82;7.30;;;5.60;99.90;;;;;;12517823;28;20164;-37
2020/12/04 20:02:20;;;;;;;14.23;6.03;;;5.60;99.90;;;;;;12508237;28;20087;-38
2020/12/04 20:08:21;;;;;;;15.60;7.63;;;5.60;99.90;;;;;;12508552;28;20135;-38
2020/12/04 20:14:22;;;;;;;15.65;7.05;;;5.40;99.90;;;;;;12494475;28;20087;-38
2020/12/04 20:20:24;;;;;;;12.25;6.90;;;5.40;99.90;;;;;;12507456;28;20072;-38
2020/12/04 20:26:26;;;;;;;12.30;5.85;;;5.40;99.90;;;;;;12505438;28;20131;-37
2020/12/04 20:32:27;;;;;;;11.23;5.60;;;5.30;99.90;;;;;;12490896;28;20460;-38
2020/12/04 20:38:29;;;;;;;16.40;7.32;;;5.10;99.90;;;;;;12508000;28;20136;-38
2020/12/04 20:44:30;;;;;;;14.77;7.65;;;4.80;99.90;;;;;;12501473;28;20075;-38
2020/12/04 20:50:32;;;;;;;16.95;7.13;;;4.70;99.90;;;;;;12504815;28;20409;-38
2020/12/04 20:56:34;;;;;;;15.30;7.15;;;4.70;99.90;;;;;;12519800;28;20053;-38
2020/12/04 21:02:36;;;;;;;13.30;6.40;;;4.70;99.90;;;;;;12494845;28;20053;-37
2020/12/04 21:08:38;;;;;;;16.33;7.88;;;4.70;99.90;;;;;;12513393;28;20048;-37
2020/12/04 21:14:40;;;;;;;16.98;7.75;;;4.60;99.90;;;;;;12510066;28;20053;-37
2020/12/04 21:20:41;;;;;;;16.67;8.90;;;4.60;99.90;;;;;;12511975;28;20106;-38
2020/12/04 21:26:42;;;;;;;15.40;8.48;;;4.50;99.90;;;;;;12504349;28;20069;-38
2020/12/04 21:32:44;;;;;;;13.85;6.90;;;4.50;99.90;;;;;;12504759;28;20045;-37
2020/12/04 21:39:00;;;;;;;13.55;6.72;;;4.50;99.90;;;;;;12510564;28;20052;-38
2020/12/04 21:45:02;;;;;;;13.10;7.38;;;4.50;99.90;;;;;;12519124;28;20084;-38
2020/12/04 21:51:03;;;;;;;15.10;6.63;;;4.50;99.90;;;;;;12519551;28;20045;-37
2020/12/04 21:57:05;;;;;;;18.30;7.80;;;4.50;99.90;;;;;;12509260;28;20083;-38
2020/12/04 22:03:06;;;;;;;15.02;8.05;;;4.50;99.90;;;;;;12516725;28;20486;-39
2020/12/04 22:09:09;;;;;;;14.57;7.85;;;4.40;99.90;;;;;;12504502;28;20079;-38
2020/12/04 22:15:10;;;;;;;15.48;8.30;;;4.40;99.90;;;;;;12486132;28;20095;-37
2020/12/04 22:21:11;;;;;;;14.57;8.45;;;4.30;99.90;;;;;;12499704;28;20152;-37
2020/12/04 22:27:13;;;;;;;14.50;8.05;;;4.20;99.90;;;;;;12503733;28;20563;-38
2020/12/04 22:33:14;;;;;;;17.25;8.95;;;4.30;99.90;;;;;;12503054;28;20076;-38
2020/12/04 22:39:15;;;;;;;14.88;8.35;;;4.30;99.90;;;;;;12510222;28;20449;-38
2020/12/04 22:45:17;;;;;;;15.30;8.02;;;4.20;99.90;;;;;;12509160;28;20144;-37
2020/12/04 22:51:23;;;;;;;14.07;7.95;;;4.10;99.90;;;;;;12511754;28;20051;-37
2020/12/04 22:57:24;;;;;;;16.02;8.32;;;3.90;99.90;;;;;;12516119;28;20088;-37
2020/12/04 23:03:25;;;;;;;19.10;9.43;;;3.60;99.90;;;;;;12517468;28;20136;-37
2020/12/04 23:09:26;;;;;;;16.27;9.20;;;3.60;99.90;;;;;;12497904;28;20138;-38
2020/12/04 23:15:28;;;;;;;15.88;7.78;;;3.70;99.90;;;;;;12500947;28;20389;-38
2020/12/04 23:21:30;;;;;;;15.10;8.60;;;3.80;99.90;;;;;;12507409;28;20045;-37
2020/12/04 23:27:32;;;;;;;15.77;8.73;;;4.00;99.90;;;;;;12507502;28;20064;-38
2020/12/04 23:33:34;;;;;;;14.10;8.40;;;4.20;99.90;;;;;;12509022;28;20072;-37
2020/12/04 23:39:35;;;;;;;17.05;8.55;;;4.10;99.90;;;;;;12515615;28;20144;-37
2020/12/04 23:45:37;;;;;;;16.80;9.45;;;4.00;99.90;;;;;;12512601;28;20095;-37
2020/12/04 23:51:38;;;;;;;15.95;8.68;;;3.80;99.90;;;;;;12502816;28;20057;-37
2020/12/04 23:57:39;;;;;;;19.15;9.00;;;3.70;99.90;;;;;;12523246;28;20072;-37
